sensor_id;sensor_type;location;lat;lon;timestamp;pressure;altitude;pressure_sealevel;temperature;humidity
18014;BME280;9132;47.946;10.394;2024-01-27T00:00:52;95568.34;;;3.94;100.00
18014;BME280;9132;47.946;10.394;2024-01-27T00:03:19;95565.88;;;3.92;100.00
18014;BME280;9132;47.946;10.394;2024-01-27T00:05:46;95567.06;;;3.88;100.00
18014;BME280;9132;47.946;10.394;2024-01-27T00:08:13;95567.16;;;3.87;100.00
18014;BME280;9132;47.946;10.394;2024-01-27T00:10:40;95572.63;;;3.84;100.00
18014;BME280;9132;47.946;10.394;2024-01-27T00:13:06;95578.78;;;3.83;100.00
18014;BME280;9132;47.946;10.394;2024-01-27T00:15:33;95584.75;;;3.85;100.00
18014;BME280;9132;47.946;10.394;2024-01-27T00:17:59;95582.22;;;3.83;100.00
18014;BME280;9132;47.946;10.394;2024-01-27T00:20:26;95581.50;;;3.81;100.00
18014;BME280;9132;47.946;10.394;2024-01-27T00:22:52;95586.88;;;3.80;100.00
18014;BME280;9132;47.946;10.394;2024-01-27T00:25:20;95592.09;;;3.80;100.00
18014;BME280;9132;47.946;10.394;2024-01-27T00:27:47;95601.56;;;3.81;100.00
18014;BME280;9132;47.946;10.394;2024-01-27T00:30:14;95601.56;;;3.81;100.00
18014;BME280;9132;47.946;10.394;2024-01-27T00:32:40;95603.25;;;3.82;100.00
18014;BME280;9132;47.946;10.394;2024-01-27T00:35:07;95610.22;;;3.81;100.00
18014;BME280;9132;47.946;10.394;2024-01-27T00:37:34;95602.53;;;3.80;100.00
18014;BME280;9132;47.946;10.394;2024-01-27T00:40:00;95592.81;;;3.82;100.00
18014;BME280;9132;47.946;10.394;2024-01-27T00:42:28;95593.63;;;3.82;100.00
18014;BME280;9132;47.946;10.394;2024-01-27T00:44:55;95588.50;;;3.81;100.00
18014;BME280;9132;47.946;10.394;2024-01-27T00:47:21;95590.44;;;3.79;100.00
18014;BME280;9132;47.946;10.394;2024-01-27T00:49:48;95592.31;;;3.77;100.00
18014;BME280;9132;47.946;10.394;2024-01-27T00:52:14;95588.06;;;3.76;100.00
18014;BME280;9132;47.946;10.394;2024-01-27T00:54:41;95602.84;;;3.75;100.00
18014;BME280;9132;47.946;10.394;2024-01-27T00:57:07;95600.59;;;3.70;100.00
18014;BME280;9132;47.946;10.394;2024-01-27T00:59:35;95603.13;;;3.72;100.00
18014;BME280;9132;47.946;10.394;2024-01-27T01:02:02;95605.84;;;3.70;100.00
18014;BME280;9132;47.946;10.394;2024-01-27T01:04:29;95606.78;;;3.69;100.00
18014;BME280;9132;47.946;10.394;2024-01-27T01:06:54;95615.69;;;3.67;100.00
18014;BME280;9132;47.946;10.394;2024-01-27T01:09:21;95611.41;;;3.66;100.00
18014;BME280;9132;47.946;10.394;2024-01-27T01:11:47;95616.63;;;3.66;100.00
18014;BME280;9132;47.946;10.394;2024-01-27T01:14:14;95614.13;;;3.64;100.00
18014;BME280;9132;47.946;10.394;2024-01-27T01:16:42;95618.63;;;3.62;100.00
18014;BME280;9132;47.946;10.394;2024-01-27T01:19:08;95616.38;;;3.58;100.00
18014;BME280;9132;47.946;10.394;2024-01-27T01:21:36;95616.59;;;3.55;100.00
18014;BME280;9132;47.946;10.394;2024-01-27T01:24:02;95622.88;;;3.52;100.00
18014;BME280;9132;47.946;10.394;2024-01-27T01:26:29;95619.66;;;3.48;100.00
18014;BME280;9132;47.946;10.394;2024-01-27T01:28:55;95626.88;;;3.45;100.00
18014;BME280;9132;47.946;10.394;2024-01-27T01:31:22;95625.78;;;3.36;100.00
18014;BME280;9132;47.946;10.394;2024-01-27T01:33:50;95619.25;;;3.31;100.00
18014;BME280;9132;47.946;10.394;2024-01-27T01:36:16;95629.06;;;3.27;100.00
18014;BME280;9132;47.946;10.394;2024-01-27T01:38:43;95638.28;;;3.20;100.00
18014;BME280;9132;47.946;10.394;2024-01-27T01:41:10;95641.25;;;3.15;100.00
18014;BME280;9132;47.946;10.394;2024-01-27T01:43:36;95641.47;;;3.12;100.00
18014;BME280;9132;47.946;10.394;2024-01-27T01:46:03;95644.53;;;3.06;100.00
18014;BME280;9132;47.946;10.394;2024-01-27T01:48:30;95647.59;;;3.00;100.00
18014;BME280;9132;47.946;10.394;2024-01-27T01:51:00;95649.59;;;2.96;100.00
18014;BME280;9132;47.946;10.394;2024-01-27T01:53:26;95646.25;;;2.94;100.00
18014;BME280;9132;47.946;10.394;2024-01-27T01:55:53;95641.97;;;2.93;100.00
18014;BME280;9132;47.946;10.394;2024-01-27T01:58:20;95638.88;;;2.88;100.00
18014;BME280;9132;47.946;10.394;2024-01-27T02:00:46;95645.13;;;2.86;100.00
18014;BME280;9132;47.946;10.394;2024-01-27T02:03:13;95649.38;;;2.87;100.00
18014;BME280;9132;47.946;10.394;2024-01-27T02:05:40;95641.47;;;2.88;100.00
18014;BME280;9132;47.946;10.394;2024-01-27T02:08:08;95643.34;;;2.86;100.00
18014;BME280;9132;47.946;10.394;2024-01-27T02:10:34;95650.34;;;2.86;100.00
18014;BME280;9132;47.946;10.394;2024-01-27T02:13:03;95649.00;;;2.80;100.00
18014;BME280;9132;47.946;10.394;2024-01-27T02:15:31;95650.38;;;2.73;100.00
18014;BME280;9132;47.946;10.394;2024-01-27T02:17:57;95653.94;;;2.72;100.00
18014;BME280;9132;47.946;10.394;2024-01-27T02:20:24;95653.41;;;2.67;100.00
18014;BME280;9132;47.946;10.394;2024-01-27T02:22:50;95656.97;;;2.66;100.00
18014;BME280;9132;47.946;10.394;2024-01-27T02:25:18;95651.03;;;2.64;100.00
18014;BME280;9132;47.946;10.394;2024-01-27T02:27:45;95649.47;;;2.61;100.00
18014;BME280;9132;47.946;10.394;2024-01-27T02:30:11;95648.16;;;2.55;100.00
18014;BME280;9132;47.946;10.394;2024-01-27T02:32:38;95649.50;;;2.48;100.00
18014;BME280;9132;47.946;10.394;2024-01-27T02:35:06;95662.03;;;2.43;100.00
18014;BME280;9132;47.946;10.394;2024-01-27T02:37:33;95658.81;;;2.40;100.00
18014;BME280;9132;47.946;10.394;2024-01-27T02:39:59;95660.69;;;2.38;100.00
18014;BME280;9132;47.946;10.394;2024-01-27T02:42:27;95662.75;;;2.32;100.00
18014;BME280;9132;47.946;10.394;2024-01-27T02:44:54;95666.41;;;2.30;100.00
18014;BME280;9132;47.946;10.394;2024-01-27T02:47:20;95660.59;;;2.26;100.00
18014;BME280;9132;47.946;10.394;2024-01-27T02:49:47;95665.16;;;2.23;100.00
18014;BME280;9132;47.946;10.394;2024-01-27T02:52:13;95665.50;;;2.18;100.00
18014;BME280;9132;47.946;10.394;2024-01-27T02:54:40;95669.44;;;2.11;100.00
18014;BME280;9132;47.946;10.394;2024-01-27T02:57:07;95675.81;;;2.07;100.00
18014;BME280;9132;47.946;10.394;2024-01-27T02:59:37;95678.81;;;2.01;100.00
18014;BME280;9132;47.946;10.394;2024-01-27T03:02:04;95683.53;;;1.96;100.00
18014;BME280;9132;47.946;10.394;2024-01-27T03:04:31;95695.28;;;1.89;100.00
18014;BME280;9132;47.946;10.394;2024-01-27T03:06:59;95686.00;;;1.84;100.00
18014;BME280;9132;47.946;10.394;2024-01-27T03:09:28;95694.97;;;1.80;100.00
18014;BME280;9132;47.946;10.394;2024-01-27T03:11:54;95696.09;;;1.76;100.00
18014;BME280;9132;47.946;10.394;2024-01-27T03:14:21;95698.81;;;1.75;100.00
18014;BME280;9132;47.946;10.394;2024-01-27T03:16:49;95701.94;;;1.67;100.00
18014;BME280;9132;47.946;10.394;2024-01-27T03:19:16;95698.88;;;1.60;100.00
18014;BME280;9132;47.946;10.394;2024-01-27T03:21:43;95697.31;;;1.58;100.00
18014;BME280;9132;47.946;10.394;2024-01-27T03:24:11;95698.34;;;1.55;100.00
18014;BME280;9132;47.946;10.394;2024-01-27T03:26:38;95691.47;;;1.54;100.00
18014;BME280;9132;47.946;10.394;2024-01-27T03:29:04;95692.72;;;1.49;100.00
18014;BME280;9132;47.946;10.394;2024-01-27T03:31:33;95699.91;;;1.45;100.00
18014;BME280;9132;47.946;10.394;2024-01-27T03:34:02;95704.44;;;1.42;100.00
18014;BME280;9132;47.946;10.394;2024-01-27T03:36:29;95713.31;;;1.39;100.00
18014;BME280;9132;47.946;10.394;2024-01-27T03:38:58;95710.91;;;1.36;100.00
18014;BME280;9132;47.946;10.394;2024-01-27T03:41:25;95707.75;;;1.31;100.00
18014;BME280;9132;47.946;10.394;2024-01-27T03:43:52;95710.56;;;1.28;100.00
18014;BME280;9132;47.946;10.394;2024-01-27T03:46:18;95711.88;;;1.21;100.00
18014;BME280;9132;47.946;10.394;2024-01-27T03:48:45;95715.50;;;1.18;100.00
18014;BME280;9132;47.946;10.394;2024-01-27T03:51:13;95714.03;;;1.14;100.00
18014;BME280;9132;47.946;10.394;2024-01-27T03:53:39;95714.75;;;1.16;100.00
18014;BME280;9132;47.946;10.394;2024-01-27T03:56:06;95716.34;;;1.19;100.00
18014;BME280;9132;47.946;10.394;2024-01-27T03:58:33;95721.53;;;1.19;100.00
18014;BME280;9132;47.946;10.394;2024-01-27T04:00:59;95718.19;;;1.16;100.00
18014;BME280;9132;47.946;10.394;2024-01-27T04:03:26;95714.88;;;1.14;100.00
18014;BME280;9132;47.946;10.394;2024-01-27T04:05:52;95718.50;;;1.12;100.00
18014;BME280;9132;47.946;10.394;2024-01-27T04:08:20;95713.69;;;1.06;100.00
18014;BME280;9132;47.946;10.394;2024-01-27T04:10:47;95723.44;;;1.02;100.00
18014;BME280;9132;47.946;10.394;2024-01-27T04:13:13;95718.63;;;0.96;100.00
18014;BME280;9132;47.946;10.394;2024-01-27T04:15:40;95722.44;;;0.90;100.00
18014;BME280;9132;47.946;10.394;2024-01-27T04:18:07;95722.75;;;0.86;100.00
18014;BME280;9132;47.946;10.394;2024-01-27T04:20:34;95721.25;;;0.82;100.00
18014;BME280;9132;47.946;10.394;2024-01-27T04:23:01;95729.44;;;0.76;100.00
18014;BME280;9132;47.946;10.394;2024-01-27T04:25:29;95728.72;;;0.74;100.00
18014;BME280;9132;47.946;10.394;2024-01-27T04:27:56;95734.75;;;0.74;100.00
18014;BME280;9132;47.946;10.394;2024-01-27T04:30:22;95738.16;;;0.75;100.00
18014;BME280;9132;47.946;10.394;2024-01-27T04:32:49;95739.19;;;0.72;100.00
18014;BME280;9132;47.946;10.394;2024-01-27T04:35:17;95736.78;;;0.69;100.00
18014;BME280;9132;47.946;10.394;2024-01-27T04:37:44;95740.31;;;0.68;100.00
18014;BME280;9132;47.946;10.394;2024-01-27T04:40:10;95749.88;;;0.67;100.00
18014;BME280;9132;47.946;10.394;2024-01-27T04:42:39;95739.38;;;0.69;100.00
18014;BME280;9132;47.946;10.394;2024-01-27T04:45:06;95740.94;;;0.72;100.00
18014;BME280;9132;47.946;10.394;2024-01-27T04:47:33;95739.00;;;0.75;100.00
18014;BME280;9132;47.946;10.394;2024-01-27T04:49:59;95737.44;;;0.73;100.00
18014;BME280;9132;47.946;10.394;2024-01-27T04:52:26;95740.31;;;0.68;100.00
18014;BME280;9132;47.946;10.394;2024-01-27T04:54:52;95738.19;;;0.60;100.00
18014;BME280;9132;47.946;10.394;2024-01-27T04:57:19;95747.28;;;0.53;100.00
18014;BME280;9132;47.946;10.394;2024-01-27T04:59:47;95740.78;;;0.46;100.00
18014;BME280;9132;47.946;10.394;2024-01-27T05:02:13;95748.13;;;0.39;100.00
18014;BME280;9132;47.946;10.394;2024-01-27T05:04:40;95745.72;;;0.36;100.00
18014;BME280;9132;47.946;10.394;2024-01-27T05:07:06;95744.22;;;0.32;100.00
18014;BME280;9132;47.946;10.394;2024-01-27T05:09:34;95747.00;;;0.29;100.00
18014;BME280;9132;47.946;10.394;2024-01-27T05:12:01;95751.38;;;0.29;100.00
18014;BME280;9132;47.946;10.394;2024-01-27T05:14:27;95756.63;;;0.27;100.00
18014;BME280;9132;47.946;10.394;2024-01-27T05:16:55;95743.84;;;0.24;100.00
18014;BME280;9132;47.946;10.394;2024-01-27T05:19:22;95752.75;;;0.20;100.00
18014;BME280;9132;47.946;10.394;2024-01-27T05:21:49;95752.09;;;0.16;100.00
18014;BME280;9132;47.946;10.394;2024-01-27T05:24:16;95746.44;;;0.10;100.00
18014;BME280;9132;47.946;10.394;2024-01-27T05:26:42;95753.19;;;0.12;100.00
18014;BME280;9132;47.946;10.394;2024-01-27T05:29:09;95754.78;;;0.15;100.00
18014;BME280;9132;47.946;10.394;2024-01-27T05:31:35;95755.59;;;0.15;100.00
18014;BME280;9132;47.946;10.394;2024-01-27T05:34:03;95748.69;;;0.16;100.00
18014;BME280;9132;47.946;10.394;2024-01-27T05:36:30;95745.22;;;0.15;100.00
18014;BME280;9132;47.946;10.394;2024-01-27T05:38:57;95751.28;;;0.16;100.00
18014;BME280;9132;47.946;10.394;2024-01-27T05:41:26;95751.34;;;0.14;100.00
18014;BME280;9132;47.946;10.394;2024-01-27T05:43:54;95747.81;;;0.15;100.00
18014;BME280;9132;47.946;10.394;2024-01-27T05:46:22;95747.09;;;0.13;100.00
18014;BME280;9132;47.946;10.394;2024-01-27T05:48:49;95753.13;;;0.14;100.00
18014;BME280;9132;47.946;10.394;2024-01-27T05:51:18;95753.75;;;0.17;100.00
18014;BME280;9132;47.946;10.394;2024-01-27T05:53:44;95756.25;;;0.19;100.00
18014;BME280;9132;47.946;10.394;2024-01-27T05:56:11;95757.00;;;0.21;100.00
18014;BME280;9132;47.946;10.394;2024-01-27T05:58:37;95765.72;;;0.20;100.00
18014;BME280;9132;47.946;10.394;2024-01-27T06:01:04;95760.16;;;0.12;100.00
18014;BME280;9132;47.946;10.394;2024-01-27T06:03:32;95763.84;;;0.08;100.00
18014;BME280;9132;47.946;10.394;2024-01-27T06:05:58;95771.91;;;0.03;100.00
18014;BME280;9132;47.946;10.394;2024-01-27T06:08:26;95764.31;;;0.00;100.00
18014;BME280;9132;47.946;10.394;2024-01-27T06:10:53;95763.81;;;-0.07;100.00
18014;BME280;9132;47.946;10.394;2024-01-27T06:13:19;95771.78;;;-0.10;100.00
18014;BME280;9132;47.946;10.394;2024-01-27T06:15:46;95754.91;;;-0.17;100.00
18014;BME280;9132;47.946;10.394;2024-01-27T06:18:12;95771.59;;;-0.07;100.00
18014;BME280;9132;47.946;10.394;2024-01-27T06:20:39;95776.91;;;-0.08;100.00
18014;BME280;9132;47.946;10.394;2024-01-27T06:23:06;95782.09;;;-0.08;100.00
18014;BME280;9132;47.946;10.394;2024-01-27T06:25:33;95776.91;;;-0.08;100.00
18014;BME280;9132;47.946;10.394;2024-01-27T06:28:00;95778.66;;;-0.09;100.00
18014;BME280;9132;47.946;10.394;2024-01-27T06:30:27;95777.91;;;-0.11;100.00
18014;BME280;9132;47.946;10.394;2024-01-27T06:32:53;95773.53;;;-0.10;100.00
18014;BME280;9132;47.946;10.394;2024-01-27T06:35:21;95770.94;;;-0.10;100.00
18014;BME280;9132;47.946;10.394;2024-01-27T06:37:47;95772.63;;;-0.09;100.00
18014;BME280;9132;47.946;10.394;2024-01-27T06:40:16;95776.78;;;-0.07;100.00
18014;BME280;9132;47.946;10.394;2024-01-27T06:42:44;95773.47;;;-0.09;100.00
18014;BME280;9132;47.946;10.394;2024-01-27T06:45:10;95775.59;;;-0.15;100.00
18014;BME280;9132;47.946;10.394;2024-01-27T06:47:37;95773.25;;;-0.20;100.00
18014;BME280;9132;47.946;10.394;2024-01-27T06:50:04;95776.28;;;-0.28;100.00
18014;BME280;9132;47.946;10.394;2024-01-27T06:52:30;95773.03;;;-0.31;100.00
18014;BME280;9132;47.946;10.394;2024-01-27T06:54:57;95782.66;;;-0.33;100.00
18014;BME280;9132;47.946;10.394;2024-01-27T06:57:24;95780.34;;;-0.38;100.00
18014;BME280;9132;47.946;10.394;2024-01-27T06:59:52;95786.53;;;-0.40;100.00
18014;BME280;9132;47.946;10.394;2024-01-27T07:02:22;95786.59;;;-0.42;100.00
18014;BME280;9132;47.946;10.394;2024-01-27T07:04:48;95786.88;;;-0.47;100.00
18014;BME280;9132;47.946;10.394;2024-01-27T07:07:15;95789.38;;;-0.45;100.00
18014;BME280;9132;47.946;10.394;2024-01-27T07:09:41;95784.19;;;-0.45;100.00
18014;BME280;9132;47.946;10.394;2024-01-27T07:12:08;95783.94;;;-0.40;100.00
18014;BME280;9132;47.946;10.394;2024-01-27T07:14:35;95789.94;;;-0.40;100.00
18014;BME280;9132;47.946;10.394;2024-01-27T07:17:04;95784.13;;;-0.43;100.00
18014;BME280;9132;47.946;10.394;2024-01-27T07:19:30;95805.50;;;-0.40;100.00
18014;BME280;9132;47.946;10.394;2024-01-27T07:21:57;95801.16;;;-0.39;100.00
18014;BME280;9132;47.946;10.394;2024-01-27T07:24:25;95800.41;;;-0.41;100.00
18014;BME280;9132;47.946;10.394;2024-01-27T07:26:52;95803.16;;;-0.44;100.00
18014;BME280;9132;47.946;10.394;2024-01-27T07:29:20;95803.16;;;-0.44;100.00
18014;BME280;9132;47.946;10.394;2024-01-27T07:31:49;95804.75;;;-0.42;100.00
18014;BME280;9132;47.946;10.394;2024-01-27T07:34:17;95813.28;;;-0.40;100.00
18014;BME280;9132;47.946;10.394;2024-01-27T07:36:44;95814.06;;;-0.38;100.00
18014;BME280;9132;47.946;10.394;2024-01-27T07:39:13;95819.03;;;-0.35;100.00
18014;BME280;9132;47.946;10.394;2024-01-27T07:41:40;95819.78;;;-0.33;100.00
18014;BME280;9132;47.946;10.394;2024-01-27T07:44:08;95821.47;;;-0.32;100.00
18014;BME280;9132;47.946;10.394;2024-01-27T07:46:35;95810.91;;;-0.29;100.00
18014;BME280;9132;47.946;10.394;2024-01-27T07:49:02;95818.88;;;-0.32;100.00
18014;BME280;9132;47.946;10.394;2024-01-27T07:51:30;95814.72;;;-0.34;100.00
18014;BME280;9132;47.946;10.394;2024-01-27T07:53:57;95822.50;;;-0.34;100.00
18014;BME280;9132;47.946;10.394;2024-01-27T07:56:24;95826.81;;;-0.35;100.00
18014;BME280;9132;47.946;10.394;2024-01-27T07:58:52;95812.38;;;-0.39;100.00
18014;BME280;9132;47.946;10.394;2024-01-27T08:01:19;95816.44;;;-0.35;100.00
18014;BME280;9132;47.946;10.394;2024-01-27T08:03:47;95824.16;;;-0.33;100.00
18014;BME280;9132;47.946;10.394;2024-01-27T08:06:15;95832.94;;;-0.36;100.00
18014;BME280;9132;47.946;10.394;2024-01-27T08:08:46;95832.88;;;-0.34;100.00
18014;BME280;9132;47.946;10.394;2024-01-27T08:11:13;95827.75;;;-0.36;100.00
18014;BME280;9132;47.946;10.394;2024-01-27T08:13:40;95831.09;;;-0.34;100.00
18014;BME280;9132;47.946;10.394;2024-01-27T08:16:06;95831.84;;;-0.32;100.00
18014;BME280;9132;47.946;10.394;2024-01-27T08:18:35;95835.13;;;-0.28;100.00
18014;BME280;9132;47.946;10.394;2024-01-27T08:21:02;95835.66;;;-0.23;100.00
18014;BME280;9132;47.946;10.394;2024-01-27T08:23:28;95838.84;;;-0.18;100.00
18014;BME280;9132;47.946;10.394;2024-01-27T08:25:57;95827.19;;;-0.11;100.00
18014;BME280;9132;47.946;10.394;2024-01-27T08:28:24;95832.03;;;-0.05;100.00
18014;BME280;9132;47.946;10.394;2024-01-27T08:30:51;95843.81;;;0.01;100.00
18014;BME280;9132;47.946;10.394;2024-01-27T08:33:18;95842.53;;;0.08;100.00
18014;BME280;9132;47.946;10.394;2024-01-27T08:35:46;95841.19;;;0.17;100.00
18014;BME280;9132;47.946;10.394;2024-01-27T08:38:13;95834.03;;;0.20;100.00
18014;BME280;9132;47.946;10.394;2024-01-27T08:40:40;95832.84;;;0.26;100.00
18014;BME280;9132;47.946;10.394;2024-01-27T08:43:08;95832.69;;;0.29;100.00
18014;BME280;9132;47.946;10.394;2024-01-27T08:45:35;95829.53;;;0.38;100.00
18014;BME280;9132;47.946;10.394;2024-01-27T08:48:01;95836.88;;;0.46;100.00
18014;BME280;9132;47.946;10.394;2024-01-27T08:50:28;95824.09;;;0.57;100.00
18014;BME280;9132;47.946;10.394;2024-01-27T08:52:55;95823.63;;;0.65;100.00
18014;BME280;9132;47.946;10.394;2024-01-27T08:55:21;95829.09;;;0.75;100.00
18014;BME280;9132;47.946;10.394;2024-01-27T08:57:49;95830.38;;;0.82;100.00
18014;BME280;9132;47.946;10.394;2024-01-27T09:00:17;95839.50;;;0.89;100.00
18014;BME280;9132;47.946;10.394;2024-01-27T09:02:44;95841.72;;;0.95;100.00
18014;BME280;9132;47.946;10.394;2024-01-27T09:05:12;95836.03;;;1.03;100.00
18014;BME280;9132;47.946;10.394;2024-01-27T09:07:38;95840.78;;;1.10;100.00
18014;BME280;9132;47.946;10.394;2024-01-27T09:10:06;95838.44;;;1.20;100.00
18014;BME280;9132;47.946;10.394;2024-01-27T09:12:33;95835.53;;;1.25;100.00
18014;BME280;9132;47.946;10.394;2024-01-27T09:14:59;95828.13;;;1.33;100.00
18014;BME280;9132;47.946;10.394;2024-01-27T09:17:27;95823.16;;;1.43;100.00
18014;BME280;9132;47.946;10.394;2024-01-27T09:19:54;95822.59;;;1.52;100.00
18014;BME280;9132;47.946;10.394;2024-01-27T09:22:20;95835.72;;;1.63;100.00
18014;BME280;9132;47.946;10.394;2024-01-27T09:24:47;95834.50;;;1.69;100.00
18014;BME280;9132;47.946;10.394;2024-01-27T09:27:14;95829.66;;;1.77;100.00
18014;BME280;9132;47.946;10.394;2024-01-27T09:29:40;95829.06;;;1.86;100.00
18014;BME280;9132;47.946;10.394;2024-01-27T09:32:07;95831.34;;;1.91;100.00
18014;BME280;9132;47.946;10.394;2024-01-27T09:34:35;95825.75;;;1.97;100.00
18014;BME280;9132;47.946;10.394;2024-01-27T09:37:02;95833.91;;;2.05;100.00
18014;BME280;9132;47.946;10.394;2024-01-27T09:39:30;95831.72;;;2.12;100.00
18014;BME280;9132;47.946;10.394;2024-01-27T09:41:59;95830.25;;;2.20;100.00
18014;BME280;9132;47.946;10.394;2024-01-27T09:44:28;95822.16;;;2.25;100.00
18014;BME280;9132;47.946;10.394;2024-01-27T09:46:54;95823.31;;;2.34;100.00
18014;BME280;9132;47.946;10.394;2024-01-27T09:49:21;95818.94;;;2.47;100.00
18014;BME280;9132;47.946;10.394;2024-01-27T09:51:49;95821.84;;;2.55;100.00
18014;BME280;9132;47.946;10.394;2024-01-27T09:54:16;95816.97;;;2.63;100.00
18014;BME280;9132;47.946;10.394;2024-01-27T09:56:46;95818.00;;;2.73;100.00
18014;BME280;9132;47.946;10.394;2024-01-27T09:59:13;95819.91;;;2.84;100.00
18014;BME280;9132;47.946;10.394;2024-01-27T10:01:41;95815.09;;;2.91;100.00
18014;BME280;9132;47.946;10.394;2024-01-27T10:04:09;95815.06;;;3.04;100.00
18014;BME280;9132;47.946;10.394;2024-01-27T10:06:35;95815.88;;;3.17;100.00
18014;BME280;9132;47.946;10.394;2024-01-27T10:09:04;95809.19;;;3.25;100.00
18014;BME280;9132;47.946;10.394;2024-01-27T10:11:31;95809.06;;;3.27;100.00
18014;BME280;9132;47.946;10.394;2024-01-27T10:13:59;95812.34;;;3.42;100.00
18014;BME280;9132;47.946;10.394;2024-01-27T10:16:27;95800.91;;;3.56;100.00
18014;BME280;9132;47.946;10.394;2024-01-27T10:19:03;95808.00;;;3.66;100.00
18014;BME280;9132;47.946;10.394;2024-01-27T10:21:30;95817.78;;;3.76;100.00
18014;BME280;9132;47.946;10.394;2024-01-27T10:23:56;95811.75;;;3.86;100.00
18014;BME280;9132;47.946;10.394;2024-01-27T10:26:24;95814.06;;;3.91;100.00
18014;BME280;9132;47.946;10.394;2024-01-27T10:28:54;95818.69;;;3.99;100.00
18014;BME280;9132;47.946;10.394;2024-01-27T10:31:26;95821.38;;;4.10;100.00
18014;BME280;9132;47.946;10.394;2024-01-27T10:33:53;95810.84;;;4.23;100.00
18014;BME280;9132;47.946;10.394;2024-01-27T10:36:20;95807.63;;;4.30;100.00
18014;BME280;9132;47.946;10.394;2024-01-27T10:38:47;95814.78;;;4.39;100.00
18014;BME280;9132;47.946;10.394;2024-01-27T10:41:22;95812.44;;;4.48;100.00
18014;BME280;9132;47.946;10.394;2024-01-27T10:43:51;95811.03;;;4.55;100.00
18014;BME280;9132;47.946;10.394;2024-01-27T10:46:19;95810.56;;;4.61;100.00
18014;BME280;9132;47.946;10.394;2024-01-27T10:48:50;95815.31;;;4.67;100.00
18014;BME280;9132;47.946;10.394;2024-01-27T10:51:18;95800.56;;;4.66;100.00
18014;BME280;9132;47.946;10.394;2024-01-27T10:53:49;95812.72;;;4.78;100.00
18014;BME280;9132;47.946;10.394;2024-01-27T10:56:18;95817.25;;;4.87;100.00
18014;BME280;9132;47.946;10.394;2024-01-27T10:58:45;95813.44;;;4.92;100.00
18014;BME280;9132;47.946;10.394;2024-01-27T11:01:16;95810.09;;;5.01;100.00
18014;BME280;9132;47.946;10.394;2024-01-27T11:03:49;95815.00;;;5.05;100.00
18014;BME280;9132;47.946;10.394;2024-01-27T11:06:17;95817.38;;;5.08;100.00
18014;BME280;9132;47.946;10.394;2024-01-27T11:08:47;95805.59;;;5.14;100.00
18014;BME280;9132;47.946;10.394;2024-01-27T11:11:15;95810.47;;;5.19;100.00
18014;BME280;9132;47.946;10.394;2024-01-27T11:13:43;95799.41;;;5.15;100.00
18014;BME280;9132;47.946;10.394;2024-01-27T11:16:18;95797.28;;;5.20;100.00
18014;BME280;9132;47.946;10.394;2024-01-27T11:18:45;95797.03;;;5.23;100.00
18014;BME280;9132;47.946;10.394;2024-01-27T11:21:14;95792.16;;;5.30;100.00
18014;BME280;9132;47.946;10.394;2024-01-27T11:23:41;95796.06;;;5.24;100.00
18014;BME280;9132;47.946;10.394;2024-01-27T11:26:09;95794.38;;;5.34;100.00
18014;BME280;9132;47.946;10.394;2024-01-27T11:28:42;95796.66;;;5.39;100.00
18014;BME280;9132;47.946;10.394;2024-01-27T11:31:08;95802.00;;;5.49;100.00
18014;BME280;9132;47.946;10.394;2024-01-27T11:33:44;95803.75;;;5.60;100.00
18014;BME280;9132;47.946;10.394;2024-01-27T11:36:18;95800.75;;;5.64;100.00
18014;BME280;9132;47.946;10.394;2024-01-27T11:38:46;95800.00;;;5.73;100.00
18014;BME280;9132;47.946;10.394;2024-01-27T11:41:12;95787.63;;;5.75;100.00
18014;BME280;9132;47.946;10.394;2024-01-27T11:43:39;95788.28;;;5.89;100.00
18014;BME280;9132;47.946;10.394;2024-01-27T11:46:06;95795.31;;;5.99;100.00
18014;BME280;9132;47.946;10.394;2024-01-27T11:48:33;95790.97;;;6.10;100.00
18014;BME280;9132;47.946;10.394;2024-01-27T11:51:11;95790.34;;;6.17;100.00
18014;BME280;9132;47.946;10.394;2024-01-27T11:53:38;95780.19;;;6.24;100.00
18014;BME280;9132;47.946;10.394;2024-01-27T11:56:05;95775.59;;;6.37;100.00
18014;BME280;9132;47.946;10.394;2024-01-27T11:58:32;95776.03;;;6.42;100.00
18014;BME280;9132;47.946;10.394;2024-01-27T12:00:59;95778.97;;;6.49;100.00
18014;BME280;9132;47.946;10.394;2024-01-27T12:03:28;95772.25;;;6.56;100.00
18014;BME280;9132;47.946;10.394;2024-01-27T12:05:55;95773.09;;;6.57;100.00
18014;BME280;9132;47.946;10.394;2024-01-27T12:08:23;95773.84;;;6.68;100.00
18014;BME280;9132;47.946;10.394;2024-01-27T12:10:51;95776.63;;;6.77;100.00
18014;BME280;9132;47.946;10.394;2024-01-27T12:13:18;95771.84;;;6.82;100.00
18014;BME280;9132;47.946;10.394;2024-01-27T12:15:44;95759.84;;;6.89;100.00
18014;BME280;9132;47.946;10.394;2024-01-27T12:18:12;95761.13;;;6.64;100.00
18014;BME280;9132;47.946;10.394;2024-01-27T12:20:38;95767.06;;;6.66;100.00
18014;BME280;9132;47.946;10.394;2024-01-27T12:23:07;95762.13;;;6.72;100.00
18014;BME280;9132;47.946;10.394;2024-01-27T12:25:35;95760.91;;;6.77;100.00
18014;BME280;9132;47.946;10.394;2024-01-27T12:28:02;95755.88;;;6.94;100.00
18014;BME280;9132;47.946;10.394;2024-01-27T12:30:29;95758.28;;;7.07;100.00
18014;BME280;9132;47.946;10.394;2024-01-27T12:32:57;95761.47;;;7.11;100.00
18014;BME280;9132;47.946;10.394;2024-01-27T12:35:24;95754.03;;;7.16;100.00
18014;BME280;9132;47.946;10.394;2024-01-27T12:37:52;95743.13;;;7.30;100.00
18014;BME280;9132;47.946;10.394;2024-01-27T12:40:20;95741.63;;;7.37;100.00
18014;BME280;9132;47.946;10.394;2024-01-27T12:42:49;95736.63;;;7.34;100.00
18014;BME280;9132;47.946;10.394;2024-01-27T12:45:14;95735.69;;;7.35;100.00
18014;BME280;9132;47.946;10.394;2024-01-27T12:47:42;95735.00;;;7.33;100.00
18014;BME280;9132;47.946;10.394;2024-01-27T12:50:09;95729.63;;;7.35;100.00
18014;BME280;9132;47.946;10.394;2024-01-27T12:52:38;95725.44;;;7.23;100.00
18014;BME280;9132;47.946;10.394;2024-01-27T12:55:05;95719.25;;;7.33;100.00
18014;BME280;9132;47.946;10.394;2024-01-27T12:57:32;95724.63;;;7.32;100.00